createdAt,value
2018-03-24T00:01:52.584Z,43.93
2018-03-24T00:04:18.757Z,39.93
2018-03-24T00:06:45.572Z,46.30
2018-03-24T00:09:12.469Z,40.00
2018-03-24T00:11:38.674Z,38.37
2018-03-24T00:14:05.559Z,43.30
2018-03-24T00:16:31.709Z,39.27
2018-03-24T00:18:57.788Z,43.80
2018-03-24T00:21:23.964Z,43.90
2018-03-24T00:23:50.048Z,44.40
2018-03-24T00:26:16.221Z,37.47
2018-03-24T00:28:42.404Z,40.70
2018-03-24T00:31:09.270Z,37.30
2018-03-24T00:33:36.502Z,38.47
2018-03-24T00:36:03.363Z,48.63
2018-03-24T00:38:30.332Z,43.73
2018-03-24T00:40:57.559Z,39.43
2018-03-24T00:43:23.583Z,43.47
2018-03-24T00:45:50.281Z,44.87
2018-03-24T00:48:17.501Z,46.27
2018-03-24T00:50:44.397Z,44.03
2018-03-24T00:53:10.575Z,41.77
2018-03-24T00:55:36.680Z,40.67
2018-03-24T00:58:02.824Z,37.80
2018-03-24T01:00:29.960Z,41.20
2018-03-24T01:02:56.334Z,38.60
2018-03-24T01:05:23.197Z,42.70
2018-03-24T01:07:49.756Z,40.23
2018-03-24T01:10:16.062Z,42.07
2018-03-24T01:12:43.042Z,38.70
2018-03-24T01:15:09.190Z,41.90
2018-03-24T01:17:35.266Z,39.10
2018-03-24T01:20:01.413Z,37.57
2018-03-24T01:22:28.269Z,35.43
2018-03-24T01:24:55.362Z,38.27
2018-03-24T01:27:21.504Z,39.80
2018-03-24T01:29:47.765Z,38.80
2018-03-24T01:32:13.889Z,38.97
2018-03-24T01:34:40.035Z,40.53
2018-03-24T01:37:06.968Z,37.10
2018-03-24T01:39:33.110Z,41.90
2018-03-24T01:42:00.047Z,39.43
2018-03-24T01:44:26.190Z,34.80
2018-03-24T01:46:53.067Z,36.43
2018-03-24T01:49:19.859Z,39.77
2018-03-24T01:51:45.950Z,37.07
2018-03-24T01:54:12.132Z,38.93
2018-03-24T01:56:38.330Z,35.93
2018-03-24T01:59:04.558Z,38.63
2018-03-24T02:01:30.804Z,39.10
2018-03-24T02:03:57.126Z,38.20
2018-03-24T02:06:23.260Z,35.93
2018-03-24T02:08:49.359Z,37.77
2018-03-24T02:11:16.293Z,33.30
2018-03-24T02:13:43.482Z,37.37
2018-03-24T02:16:09.729Z,35.10
2018-03-24T02:18:35.771Z,36.93
2018-03-24T02:21:05.826Z,38.20
2018-03-24T02:23:32.029Z,37.30
2018-03-24T02:26:05.316Z,37.57
2018-03-24T02:28:31.473Z,37.00
2018-03-24T02:30:57.675Z,34.43
2018-03-24T02:33:23.759Z,39.97
2018-03-24T02:35:49.969Z,34.70
2018-03-24T02:38:16.099Z,33.27
2018-03-24T02:40:42.429Z,37.70
2018-03-24T02:43:08.538Z,34.80
2018-03-24T02:45:34.970Z,37.90
2018-03-24T02:48:01.107Z,38.37
2018-03-24T02:50:27.209Z,39.20
2018-03-24T02:52:53.379Z,39.60
2018-03-24T02:55:20.436Z,38.83
2018-03-24T02:57:46.553Z,37.00
2018-03-24T03:00:13.286Z,38.97
2018-03-24T03:02:40.221Z,37.47
2018-03-24T03:05:07.056Z,40.43
2018-03-24T03:07:33.154Z,40.83
2018-03-24T03:09:59.410Z,41.90
2018-03-24T03:12:25.930Z,40.93
2018-03-24T03:14:52.092Z,45.57
2018-03-24T03:17:19.611Z,42.20
2018-03-24T03:19:45.669Z,40.53
2018-03-24T03:22:12.425Z,46.37
2018-03-24T03:24:38.523Z,47.43
2018-03-24T03:27:04.649Z,43.87
2018-03-24T03:29:30.773Z,47.70
2018-03-24T03:32:10.802Z,46.93
2018-03-24T03:34:37.134Z,40.40
2018-03-24T03:37:03.405Z,43.67
2018-03-24T03:39:29.514Z,41.23
2018-03-24T03:41:56.392Z,41.50
2018-03-24T03:44:22.426Z,41.20
2018-03-24T03:46:48.530Z,43.00
2018-03-24T03:49:14.619Z,48.77
2018-03-24T03:51:42.432Z,44.53
2018-03-24T03:54:08.572Z,45.33
2018-03-24T03:56:34.651Z,43.10
2018-03-24T03:59:00.846Z,46.20
2018-03-24T04:01:26.898Z,43.33
2018-03-24T04:03:53.763Z,51.17
2018-03-24T04:06:19.827Z,45.73
2018-03-24T04:08:45.872Z,45.40
2018-03-24T04:11:12.041Z,46.77
2018-03-24T04:13:38.168Z,42.97
2018-03-24T04:16:04.242Z,43.83
2018-03-24T04:18:30.546Z,41.17
2018-03-24T04:20:57.162Z,49.23
2018-03-24T04:23:24.094Z,50.90
2018-03-24T04:25:50.247Z,50.17
2018-03-24T04:28:17.287Z,46.03
2018-03-24T04:30:43.482Z,44.40
2018-03-24T04:33:10.146Z,46.57
2018-03-24T04:35:36.243Z,43.77
2018-03-24T04:38:03.182Z,44.77
2018-03-24T04:40:29.284Z,44.50
2018-03-24T04:42:55.365Z,46.73
2018-03-24T04:45:22.244Z,49.97
2018-03-24T04:47:48.390Z,44.90
2018-03-24T04:50:14.540Z,44.90
2018-03-24T04:52:40.554Z,45.13
2018-03-24T04:55:06.730Z,45.43
2018-03-24T04:57:33.777Z,43.10
2018-03-24T05:00:00.106Z,40.37
2018-03-24T05:02:26.394Z,47.03
2018-03-24T05:04:53.269Z,45.33
2018-03-24T05:07:19.407Z,42.73
2018-03-24T05:09:45.520Z,40.72
2018-03-24T05:12:11.699Z,51.22
2018-03-24T05:14:38.533Z,42.88
2018-03-24T05:17:05.002Z,41.75
2018-03-24T05:19:31.150Z,42.10
2018-03-24T05:21:57.282Z,44.30
2018-03-24T05:24:23.379Z,40.80
2018-03-24T05:26:49.438Z,42.10
2018-03-24T05:29:16.375Z,48.10
2018-03-24T05:31:42.762Z,43.13
2018-03-24T05:34:08.887Z,45.43
2018-03-24T05:36:35.174Z,44.37
2018-03-24T05:39:02.527Z,43.55
2018-03-24T05:41:28.644Z,42.67
2018-03-24T05:43:55.207Z,44.25
2018-03-24T05:46:22.204Z,42.43
2018-03-24T05:48:48.233Z,46.70
2018-03-24T05:51:14.347Z,45.58
2018-03-24T05:53:41.452Z,41.97
2018-03-24T05:56:07.771Z,39.65
2018-03-24T05:58:33.907Z,40.08
2018-03-24T06:01:00.087Z,45.93
2018-03-24T06:03:26.230Z,39.78
2018-03-24T06:05:53.205Z,46.67
2018-03-24T06:08:20.037Z,49.28
2018-03-24T06:10:46.140Z,39.87
2018-03-24T06:13:12.155Z,43.70
2018-03-24T06:15:38.948Z,43.93
2018-03-24T06:18:05.321Z,49.37
2018-03-24T06:20:32.440Z,37.90
2018-03-24T06:22:58.526Z,42.17
2018-03-24T06:25:24.656Z,45.30
2018-03-24T06:27:51.486Z,45.90
2018-03-24T06:30:17.648Z,47.35
2018-03-24T06:32:44.486Z,45.42
2018-03-24T06:35:11.717Z,45.55
2018-03-24T06:37:37.799Z,39.60
2018-03-24T06:40:03.939Z,42.80
2018-03-24T06:42:30.055Z,46.57
2018-03-24T06:44:56.260Z,46.42
2018-03-24T06:47:22.593Z,40.10
2018-03-24T06:49:48.702Z,42.22
2018-03-24T06:52:15.452Z,44.57
2018-03-24T06:54:41.626Z,39.60
2018-03-24T06:57:08.954Z,36.33
2018-03-24T06:59:35.044Z,42.45
2018-03-24T07:02:01.206Z,42.43
2018-03-24T07:04:27.469Z,39.73
2018-03-24T07:06:56.477Z,36.53
2018-03-24T07:09:23.352Z,37.77
2018-03-24T07:11:49.509Z,41.20
2018-03-24T07:14:15.633Z,39.13
2018-03-24T07:16:41.723Z,38.13
2018-03-24T07:19:08.626Z,41.63
2018-03-24T07:21:34.762Z,44.07
2018-03-24T07:24:00.946Z,46.17
2018-03-24T07:26:27.837Z,47.30
2018-03-24T07:28:54.046Z,44.20
2018-03-24T07:31:21.201Z,43.17
2018-03-24T07:33:48.260Z,40.70
2018-03-24T07:36:14.431Z,37.77
2018-03-24T07:38:41.041Z,47.65
2018-03-24T07:41:07.381Z,45.47
2018-03-24T07:43:33.485Z,43.40
2018-03-24T07:45:59.571Z,38.97
2018-03-24T07:48:26.552Z,45.73
2018-03-24T07:50:53.510Z,40.43
2018-03-24T07:53:21.387Z,41.10
2018-03-24T07:55:48.208Z,43.17
2018-03-24T07:58:14.385Z,35.43
2018-03-24T08:00:40.575Z,39.73
2018-03-24T08:03:06.783Z,40.17
2018-03-24T08:05:33.406Z,42.33
2018-03-24T08:07:59.663Z,38.63
2018-03-24T08:10:27.067Z,41.50
2018-03-24T08:12:53.199Z,45.37
2018-03-24T08:15:19.633Z,49.87
2018-03-24T08:17:45.862Z,44.67
2018-03-24T08:20:12.796Z,46.30
2018-03-24T08:22:39.688Z,41.47
2018-03-24T08:25:05.837Z,42.43
2018-03-24T08:27:32.065Z,47.97
2018-03-24T08:29:58.210Z,41.67
2018-03-24T08:32:24.819Z,46.33
2018-03-24T08:34:50.936Z,43.47
2018-03-24T08:37:17.812Z,41.00
2018-03-24T08:39:44.339Z,43.93
2018-03-24T08:42:10.924Z,51.20
2018-03-24T08:44:37.907Z,46.37
2018-03-24T08:47:05.432Z,43.10
2018-03-24T08:49:31.953Z,44.00
2018-03-24T08:51:58.906Z,44.00
2018-03-24T08:54:25.035Z,43.47
2018-03-24T08:56:51.137Z,42.77
2018-03-24T08:59:17.971Z,38.13
2018-03-24T09:01:45.330Z,42.90
2018-03-24T09:04:11.700Z,42.30
2018-03-24T09:06:37.862Z,41.17
2018-03-24T09:09:04.317Z,46.43
2018-03-24T09:11:30.592Z,42.13
2018-03-24T09:13:56.741Z,38.70
2018-03-24T09:16:24.733Z,39.37
2018-03-24T09:18:51.720Z,40.47
2018-03-24T09:21:17.875Z,39.73
2018-03-24T09:23:44.751Z,57.23
2018-03-24T09:26:10.872Z,42.47
2018-03-24T09:28:37.007Z,37.97
2018-03-24T09:31:03.145Z,38.20
2018-03-24T09:33:29.308Z,32.00
2018-03-24T09:35:57.006Z,35.10
2018-03-24T09:38:23.301Z,35.63
2018-03-24T09:40:49.732Z,35.53
2018-03-24T09:43:16.777Z,31.57
2018-03-24T09:45:43.972Z,34.60
2018-03-24T09:48:10.106Z,37.93
2018-03-24T09:50:36.334Z,31.00
2018-03-24T09:53:02.539Z,36.90
2018-03-24T09:55:28.688Z,30.83
2018-03-24T09:57:54.710Z,25.73
2018-03-24T10:00:20.743Z,34.33
2018-03-24T10:02:46.856Z,26.47
2018-03-24T10:05:13.156Z,24.57
2018-03-24T10:07:39.171Z,22.07
2018-03-24T10:10:06.094Z,19.43
2018-03-24T10:12:32.532Z,20.93
2018-03-24T10:14:58.731Z,20.70
2018-03-24T10:17:25.248Z,16.27
2018-03-24T10:19:51.383Z,14.20
2018-03-24T10:25:26.666Z,15.80
2018-03-24T10:27:53.322Z,17.53
2018-03-24T10:30:19.414Z,19.00
2018-03-24T10:32:45.548Z,19.23
2018-03-24T10:35:11.721Z,18.20
2018-03-24T10:37:44.500Z,17.20
2018-03-24T10:40:11.496Z,15.83
2018-03-24T10:42:38.462Z,19.90
2018-03-24T10:45:04.626Z,15.30
2018-03-24T10:47:30.797Z,17.80
2018-03-24T10:49:57.747Z,14.93
2018-03-24T10:52:24.267Z,16.47
2018-03-24T10:54:50.862Z,18.33
2018-03-24T10:57:17.112Z,17.87
2018-03-24T10:59:44.107Z,16.87
2018-03-24T11:02:10.212Z,22.00
2018-03-24T11:04:36.303Z,18.43
2018-03-24T11:07:02.604Z,17.80
2018-03-24T11:09:28.811Z,16.37
2018-03-24T11:11:55.150Z,18.67
2018-03-24T11:14:21.558Z,16.40
2018-03-24T11:16:48.830Z,21.73
2018-03-24T11:19:15.046Z,19.77
2018-03-24T11:21:42.508Z,19.53
2018-03-24T11:24:08.593Z,18.63
2018-03-24T11:26:34.780Z,19.93
2018-03-24T11:29:00.879Z,16.97
2018-03-24T11:31:27.757Z,20.93
2018-03-24T11:33:54.994Z,19.20
2018-03-24T11:36:21.156Z,16.83
2018-03-24T11:38:47.227Z,20.67
2018-03-24T11:41:13.432Z,20.00
2018-03-24T11:43:39.547Z,20.17
2018-03-24T11:46:06.637Z,16.40
2018-03-24T11:48:33.684Z,14.40
2018-03-24T11:51:00.454Z,19.83
2018-03-24T11:53:39.675Z,19.50
2018-03-24T11:56:05.867Z,17.17
2018-03-24T11:58:32.166Z,15.50
2018-03-24T12:00:58.345Z,14.90
2018-03-24T12:03:24.577Z,18.90
2018-03-24T12:05:51.773Z,15.50
2018-03-24T12:08:18.079Z,14.97
2018-03-24T12:10:44.243Z,16.53
2018-03-24T12:13:10.343Z,17.00
2018-03-24T12:15:37.315Z,18.50
2018-03-24T12:18:05.736Z,14.37
2018-03-24T12:20:33.547Z,19.70
2018-03-24T12:22:59.927Z,21.97
2018-03-24T12:25:26.006Z,16.20
2018-03-24T12:27:52.541Z,18.50
2018-03-24T12:30:20.634Z,16.23
2018-03-24T12:32:46.896Z,17.27
2018-03-24T12:35:13.120Z,16.30
2018-03-24T12:37:39.649Z,17.50
2018-03-24T12:40:05.892Z,16.87
2018-03-24T12:42:31.999Z,16.17
2018-03-24T12:44:58.249Z,19.30
2018-03-24T12:47:24.773Z,15.63
2018-03-24T12:49:51.078Z,15.00
2018-03-24T12:52:17.319Z,14.40
2018-03-24T12:54:44.188Z,13.70
2018-03-24T12:57:10.289Z,14.63
2018-03-24T12:59:38.097Z,15.70
2018-03-24T13:02:04.740Z,13.17
2018-03-24T13:04:30.848Z,14.60
2018-03-24T13:06:57.384Z,15.47
2018-03-24T13:09:24.425Z,12.53
2018-03-24T13:11:50.751Z,17.03
2018-03-24T13:14:17.602Z,16.33
2018-03-24T13:16:44.450Z,13.17
2018-03-24T13:19:11.346Z,12.43
2018-03-24T13:21:37.515Z,14.90
2018-03-24T13:24:03.871Z,13.80
2018-03-24T13:26:30.694Z,17.60
2018-03-24T13:28:56.907Z,14.70
2018-03-24T13:31:23.782Z,13.60
2018-03-24T13:33:50.423Z,15.33
2018-03-24T13:36:16.709Z,16.83
2018-03-24T13:38:42.997Z,16.20
2018-03-24T13:41:10.319Z,12.97
2018-03-24T13:43:36.679Z,14.93
2018-03-24T13:46:02.852Z,13.40
2018-03-24T13:48:29.777Z,14.90
2018-03-24T13:50:57.605Z,17.30
2018-03-24T13:53:24.755Z,16.93
2018-03-24T13:55:50.915Z,15.20
2018-03-24T13:58:17.047Z,13.77
2018-03-24T14:00:43.993Z,15.77
2018-03-24T14:03:10.157Z,11.63
2018-03-24T14:05:36.438Z,12.27
2018-03-24T14:08:03.544Z,14.03
2018-03-24T14:10:30.863Z,14.13
2018-03-24T14:12:57.416Z,16.40
2018-03-24T14:15:25.006Z,12.77
2018-03-24T14:17:52.124Z,12.23
2018-03-24T14:20:21.469Z,16.40
2018-03-24T14:22:50.306Z,13.73
2018-03-24T14:25:17.171Z,14.00
2018-03-24T14:27:43.322Z,16.00
2018-03-24T14:30:10.571Z,14.20
2018-03-24T14:32:37.305Z,12.63
2018-03-24T14:35:05.299Z,14.03
2018-03-24T14:37:32.478Z,12.97
2018-03-24T14:39:59.603Z,14.33
2018-03-24T14:42:27.707Z,13.20
2018-03-24T14:44:53.930Z,13.70
2018-03-24T14:47:21.450Z,17.40
2018-03-24T14:49:47.615Z,13.30
2018-03-24T14:52:14.095Z,12.70
2018-03-24T14:54:40.414Z,12.63
2018-03-24T14:57:08.189Z,12.40
2018-03-24T14:59:35.328Z,13.87
2018-03-24T15:02:02.345Z,16.27
2018-03-24T15:04:28.874Z,12.70
2018-03-24T15:06:55.109Z,13.07
2018-03-24T15:09:21.242Z,12.90
2018-03-24T15:11:47.904Z,15.10
2018-03-24T15:14:14.126Z,13.33
2018-03-24T15:16:40.356Z,14.27
2018-03-24T15:19:06.511Z,12.77
2018-03-24T15:21:32.698Z,13.30
2018-03-24T15:23:59.746Z,15.10
2018-03-24T15:26:25.988Z,11.50
2018-03-24T15:29:05.369Z,9.53
2018-03-24T15:31:46.058Z,12.80
2018-03-24T15:34:26.056Z,12.70
2018-03-24T15:36:52.294Z,11.20
2018-03-24T15:39:18.493Z,13.27
2018-03-24T15:41:45.136Z,13.90
2018-03-24T15:44:11.355Z,13.97
2018-03-24T15:46:37.612Z,13.30
2018-03-24T15:49:03.855Z,20.03
2018-03-24T15:51:30.051Z,15.10
2018-03-24T15:53:56.989Z,13.03
2018-03-24T15:56:24.007Z,13.43
2018-03-24T15:58:50.274Z,13.10
2018-03-24T16:01:16.503Z,14.23
2018-03-24T16:03:42.855Z,14.80
2018-03-24T16:06:09.084Z,11.50
2018-03-24T16:08:35.284Z,11.40
2018-03-24T16:11:01.545Z,89.10
2018-03-24T16:13:28.770Z,18.37
2018-03-24T16:15:54.891Z,15.83
2018-03-24T16:18:22.072Z,13.90
2018-03-24T16:20:48.711Z,15.07
2018-03-24T16:23:14.941Z,19.77
2018-03-24T16:25:41.057Z,14.90
2018-03-24T16:28:07.510Z,14.30
2018-03-24T16:30:34.509Z,17.83
2018-03-24T16:33:01.874Z,14.20
2018-03-24T16:35:28.751Z,11.80
2018-03-24T16:37:56.220Z,14.80
2018-03-24T16:40:24.657Z,16.23
2018-03-24T16:42:51.613Z,14.30
2018-03-24T16:45:18.961Z,23.50
2018-03-24T16:47:45.935Z,18.23
2018-03-24T16:50:13.036Z,19.30
2018-03-24T16:52:39.824Z,19.47
2018-03-24T16:55:07.132Z,12.33
2018-03-24T16:57:36.078Z,17.30
2018-03-24T17:00:03.850Z,21.03
2018-03-24T17:02:29.907Z,22.17
2018-03-24T17:04:56.498Z,34.23
2018-03-24T17:07:22.815Z,17.10
2018-03-24T17:09:49.008Z,13.77
2018-03-24T17:12:15.892Z,15.43
2018-03-24T17:14:42.444Z,15.60
2018-03-24T17:17:08.658Z,17.10
2018-03-24T17:19:34.902Z,19.70
2018-03-24T17:22:01.111Z,13.60
2018-03-24T17:24:27.417Z,14.97
2018-03-24T17:26:54.001Z,15.77
2018-03-24T17:29:20.371Z,15.00
2018-03-24T17:31:47.762Z,15.80
2018-03-24T17:34:15.141Z,15.23
2018-03-24T17:36:42.087Z,18.43
2018-03-24T17:39:08.390Z,16.27
2018-03-24T17:41:36.238Z,18.90
2018-03-24T17:44:02.833Z,14.70
2018-03-24T17:46:29.737Z,14.57
2018-03-24T17:48:56.658Z,17.13
2018-03-24T17:51:23.023Z,19.67
2018-03-24T17:53:51.068Z,15.83
2018-03-24T17:56:18.162Z,17.67
2018-03-24T17:58:44.554Z,18.00
2018-03-24T18:01:10.676Z,16.30
2018-03-24T18:03:37.823Z,17.23
2018-03-24T18:06:04.979Z,18.97
2018-03-24T18:08:31.131Z,16.30
2018-03-24T18:10:57.584Z,17.43
2018-03-24T18:13:24.004Z,21.90
2018-03-24T18:15:50.330Z,16.90
2018-03-24T18:18:16.522Z,18.10
2018-03-24T18:20:44.221Z,16.40
2018-03-24T18:23:10.346Z,15.90
2018-03-24T18:25:37.292Z,20.23
2018-03-24T18:28:04.776Z,15.20
2018-03-24T18:30:31.108Z,15.00
2018-03-24T18:32:57.374Z,17.37
2018-03-24T18:35:23.496Z,18.73
2018-03-24T18:37:49.623Z,18.13
2018-03-24T18:40:15.785Z,18.20
2018-03-24T18:42:42.442Z,18.47
2018-03-24T18:45:09.458Z,20.97
2018-03-24T18:47:36.176Z,20.10
2018-03-24T18:50:02.453Z,20.53
2018-03-24T18:52:28.594Z,15.87
2018-03-24T18:54:54.794Z,20.03
2018-03-24T18:57:20.963Z,19.60
2018-03-24T18:59:47.157Z,24.40
2018-03-24T19:02:13.709Z,20.77
2018-03-24T19:04:40.639Z,17.37
2018-03-24T19:07:06.845Z,23.93
2018-03-24T19:09:33.639Z,26.80
2018-03-24T19:11:59.809Z,20.90
2018-03-24T19:14:27.577Z,29.60
2018-03-24T19:16:55.021Z,23.70
2018-03-24T19:19:21.380Z,23.90
2018-03-24T19:21:48.324Z,24.10
2018-03-24T19:24:14.464Z,27.10
2018-03-24T19:26:41.286Z,26.67
2018-03-24T19:29:07.613Z,21.57
2018-03-24T19:31:35.210Z,23.00
2018-03-24T19:34:02.964Z,23.20
2018-03-24T19:36:29.431Z,21.80
2018-03-24T19:38:56.214Z,23.00
2018-03-24T19:41:22.302Z,22.10
2018-03-24T19:43:49.475Z,23.60
2018-03-24T19:46:16.493Z,27.50
2018-03-24T19:48:42.593Z,31.13
2018-03-24T19:51:09.785Z,28.33
2018-03-24T19:53:35.943Z,28.03
2018-03-24T19:56:02.063Z,25.30
2018-03-24T19:58:28.773Z,24.30
2018-03-24T20:00:54.913Z,20.87
2018-03-24T20:03:21.017Z,22.83
2018-03-24T20:05:47.830Z,22.30
2018-03-24T20:08:14.032Z,23.67
2018-03-24T20:10:40.154Z,20.43
2018-03-24T20:13:06.675Z,20.23
2018-03-24T20:15:33.503Z,24.50
2018-03-24T20:17:59.574Z,24.30
2018-03-24T20:20:26.051Z,26.20
2018-03-24T20:22:52.968Z,34.60
2018-03-24T20:25:19.062Z,26.70
2018-03-24T20:27:45.239Z,79.30
2018-03-24T20:30:11.417Z,27.73
2018-03-24T20:32:37.629Z,24.40
2018-03-24T20:35:04.597Z,24.53
2018-03-24T20:37:31.656Z,30.77
2018-03-24T20:39:57.760Z,24.30
2018-03-24T20:42:24.196Z,29.17
2018-03-24T20:44:50.223Z,29.17
2018-03-24T20:47:17.293Z,26.77
2018-03-24T20:49:43.407Z,27.77
2018-03-24T20:52:09.639Z,32.73
2018-03-24T20:54:36.281Z,33.57
2018-03-24T20:57:02.596Z,31.60
2018-03-24T20:59:28.747Z,31.93
2018-03-24T21:01:56.478Z,28.50
2018-03-24T21:04:22.600Z,29.77
2018-03-24T21:06:48.746Z,33.43
2018-03-24T21:09:14.898Z,32.83
2018-03-24T21:11:40.939Z,31.63
2018-03-24T21:14:08.173Z,32.60
2018-03-24T21:16:34.305Z,29.07
2018-03-24T21:19:00.523Z,30.30
2018-03-24T21:21:26.757Z,30.43
2018-03-24T21:23:53.142Z,29.07
2018-03-24T21:26:20.824Z,31.13
2018-03-24T21:28:47.855Z,28.43
2018-03-24T21:31:15.302Z,25.40
2018-03-24T21:33:42.057Z,27.33
2018-03-24T21:36:11.013Z,30.03
2018-03-24T21:38:37.380Z,29.97
2018-03-24T21:41:03.934Z,30.80
2018-03-24T21:43:30.833Z,30.63
2018-03-24T21:45:57.068Z,30.67
2018-03-24T21:48:23.480Z,32.40
2018-03-24T21:50:49.726Z,39.97
2018-03-24T21:53:15.861Z,55.67
2018-03-24T21:55:42.175Z,54.27
2018-03-24T21:58:08.382Z,44.73
2018-03-24T22:00:34.556Z,42.33
2018-03-24T22:03:00.679Z,46.33
2018-03-24T22:05:26.920Z,74.30
2018-03-24T22:07:53.803Z,44.00
2018-03-24T22:10:21.138Z,53.70
2018-03-24T22:12:47.292Z,42.23
2018-03-24T22:15:13.413Z,60.30
2018-03-24T22:17:39.591Z,54.93
2018-03-24T22:20:06.619Z,50.30
2018-03-24T22:22:32.752Z,45.70
2018-03-24T22:24:59.250Z,47.70
2018-03-24T22:27:25.742Z,42.97
2018-03-24T22:29:51.807Z,58.53
2018-03-24T22:32:18.591Z,55.37
2018-03-24T22:34:45.675Z,52.30
2018-03-24T22:37:11.726Z,45.93
2018-03-24T22:39:38.881Z,46.73
2018-03-24T22:42:05.919Z,36.03
2018-03-24T22:44:32.899Z,34.77
2018-03-24T22:46:59.818Z,36.47
2018-03-24T22:49:26.283Z,32.73
2018-03-24T22:51:53.204Z,39.30
2018-03-24T22:54:19.257Z,31.80
2018-03-24T22:56:46.280Z,34.47
2018-03-24T22:59:12.661Z,52.43
2018-03-24T23:01:39.536Z,48.17
2018-03-24T23:04:05.686Z,41.27
2018-03-24T23:06:31.720Z,44.93
2018-03-24T23:08:57.784Z,38.03
2018-03-24T23:11:24.403Z,41.37
2018-03-24T23:13:50.429Z,35.10
2018-03-24T23:16:16.732Z,35.83
2018-03-24T23:18:43.701Z,34.00
2018-03-24T23:21:09.815Z,40.77
2018-03-24T23:23:36.065Z,34.00
2018-03-24T23:26:02.373Z,32.10
2018-03-24T23:28:28.566Z,35.30
2018-03-24T23:30:54.646Z,37.23
2018-03-24T23:33:20.774Z,34.80
2018-03-24T23:35:46.902Z,31.53
2018-03-24T23:38:12.925Z,32.40
2018-03-24T23:40:39.055Z,33.23
2018-03-24T23:43:05.170Z,31.03
2018-03-24T23:45:31.959Z,34.10
2018-03-24T23:47:58.032Z,32.10
2018-03-24T23:50:24.139Z,31.33
2018-03-24T23:52:51.315Z,34.70
2018-03-24T23:55:17.440Z,31.20
2018-03-24T23:57:43.569Z,35.23
